sensor_id;sensor_type;location;lat;lon;timestamp;P1;P2;P0
57049;PMS7003;42935;50.966;16.992;2023-01-20T00:02:20;101;73;43
57049;PMS7003;42935;50.966;16.992;2023-01-20T00:05:30;102;68;40
57049;PMS7003;42935;50.966;16.992;2023-01-20T00:08:48;99;73;42
57049;PMS7003;42935;50.966;16.992;2023-01-20T00:12:09;91;68;40
57049;PMS7003;42935;50.966;16.992;2023-01-20T00:15:21;94;71;41
57049;PMS7003;42935;50.966;16.992;2023-01-20T00:18:35;83;61;35
57049;PMS7003;42935;50.966;16.992;2023-01-20T00:21:48;91;68;41
57049;PMS7003;42935;50.966;16.992;2023-01-20T00:25:06;98;72;39
57049;PMS7003;42935;50.966;16.992;2023-01-20T00:28:21;94;69;42
57049;PMS7003;42935;50.966;16.992;2023-01-20T00:31:31;98;69;42
57049;PMS7003;42935;50.966;16.992;2023-01-20T00:34:48;101;71;42
57049;PMS7003;42935;50.966;16.992;2023-01-20T00:38:02;95;67;40
57049;PMS7003;42935;50.966;16.992;2023-01-20T00:41:11;96;73;41
57049;PMS7003;42935;50.966;16.992;2023-01-20T00:44:27;99;75;44
57049;PMS7003;42935;50.966;16.992;2023-01-20T00:47:43;97;70;38
57049;PMS7003;42935;50.966;16.992;2023-01-20T00:50:51;97;71;42
57049;PMS7003;42935;50.966;16.992;2023-01-20T00:54:06;94;73;42
57049;PMS7003;42935;50.966;16.992;2023-01-20T00:57:14;97;72;42
57049;PMS7003;42935;50.966;16.992;2023-01-20T01:00:27;101;74;42
57049;PMS7003;42935;50.966;16.992;2023-01-20T01:03:45;106;82;45
57049;PMS7003;42935;50.966;16.992;2023-01-20T01:07:02;96;73;39
57049;PMS7003;42935;50.966;16.992;2023-01-20T01:10:18;108;81;49
57049;PMS7003;42935;50.966;16.992;2023-01-20T01:13:55;110;81;47
57049;PMS7003;42935;50.966;16.992;2023-01-20T01:16:59;119;86;46
57049;PMS7003;42935;50.966;16.992;2023-01-20T01:20:11;114;92;52
57049;PMS7003;42935;50.966;16.992;2023-01-20T01:23:25;122;92;53
57049;PMS7003;42935;50.966;16.992;2023-01-20T01:26:37;115;89;55
57049;PMS7003;42935;50.966;16.992;2023-01-20T01:29:46;117;85;50
57049;PMS7003;42935;50.966;16.992;2023-01-20T01:32:59;120;88;51
57049;PMS7003;42935;50.966;16.992;2023-01-20T01:36:14;141;106;59
57049;PMS7003;42935;50.966;16.992;2023-01-20T01:39:32;130;98;56
57049;PMS7003;42935;50.966;16.992;2023-01-20T01:42:45;146;108;61
57049;PMS7003;42935;50.966;16.992;2023-01-20T01:46:04;134;96;56
57049;PMS7003;42935;50.966;16.992;2023-01-20T01:49:16;124;93;53
57049;PMS7003;42935;50.966;16.992;2023-01-20T01:52:37;131;98;58
57049;PMS7003;42935;50.966;16.992;2023-01-20T01:55:57;133;99;61
57049;PMS7003;42935;50.966;16.992;2023-01-20T01:59:13;131;102;59
57049;PMS7003;42935;50.966;16.992;2023-01-20T02:02:27;133;101;57
57049;PMS7003;42935;50.966;16.992;2023-01-20T02:05:44;135;100;59
57049;PMS7003;42935;50.966;16.992;2023-01-20T02:09:04;120;85;51
57049;PMS7003;42935;50.966;16.992;2023-01-20T02:12:18;119;91;51
57049;PMS7003;42935;50.966;16.992;2023-01-20T02:32:53;104;72;43
57049;PMS7003;42935;50.966;16.992;2023-01-20T02:39:46;101;75;43
57049;PMS7003;42935;50.966;16.992;2023-01-20T02:46:35;103;75;45
57049;PMS7003;42935;50.966;16.992;2023-01-20T02:49:54;109;84;49
57049;PMS7003;42935;50.966;16.992;2023-01-20T02:53:15;115;85;49
57049;PMS7003;42935;50.966;16.992;2023-01-20T02:56:36;119;90;52
57049;PMS7003;42935;50.966;16.992;2023-01-20T02:59:56;131;96;54
57049;PMS7003;42935;50.966;16.992;2023-01-20T03:03:14;127;94;57
57049;PMS7003;42935;50.966;16.992;2023-01-20T03:06:33;111;87;49
57049;PMS7003;42935;50.966;16.992;2023-01-20T03:09:50;133;95;54
57049;PMS7003;42935;50.966;16.992;2023-01-20T03:16:36;125;97;55
57049;PMS7003;42935;50.966;16.992;2023-01-20T03:19:50;123;92;57
57049;PMS7003;42935;50.966;16.992;2023-01-20T03:23:08;135;101;58
57049;PMS7003;42935;50.966;16.992;2023-01-20T03:26:22;132;105;59
57049;PMS7003;42935;50.966;16.992;2023-01-20T03:29:36;140;103;61
57049;PMS7003;42935;50.966;16.992;2023-01-20T03:32:45;133;103;60
57049;PMS7003;42935;50.966;16.992;2023-01-20T03:36:01;134;97;56
57049;PMS7003;42935;50.966;16.992;2023-01-20T03:39:15;125;93;58
57049;PMS7003;42935;50.966;16.992;2023-01-20T03:42:28;127;99;56
57049;PMS7003;42935;50.966;16.992;2023-01-20T03:49:34;110;87;51
57049;PMS7003;42935;50.966;16.992;2023-01-20T03:56:08;117;87;50
57049;PMS7003;42935;50.966;16.992;2023-01-20T03:59:31;107;82;47
57049;PMS7003;42935;50.966;16.992;2023-01-20T04:02:43;110;79;45
57049;PMS7003;42935;50.966;16.992;2023-01-20T04:05:56;111;80;47
57049;PMS7003;42935;50.966;16.992;2023-01-20T04:09:13;104;77;44
57049;PMS7003;42935;50.966;16.992;2023-01-20T04:12:35;111;77;45
57049;PMS7003;42935;50.966;16.992;2023-01-20T04:15:53;108;79;47
57049;PMS7003;42935;50.966;16.992;2023-01-20T04:19:10;101;76;44
57049;PMS7003;42935;50.966;16.992;2023-01-20T04:25:42;110;80;46
57049;PMS7003;42935;50.966;16.992;2023-01-20T04:28:55;112;81;46
57049;PMS7003;42935;50.966;16.992;2023-01-20T04:32:04;99;75;44
57049;PMS7003;42935;50.966;16.992;2023-01-20T04:35:21;102;75;45
57049;PMS7003;42935;50.966;16.992;2023-01-20T04:38:34;100;75;44
57049;PMS7003;42935;50.966;16.992;2023-01-20T04:42:12;110;79;44
57049;PMS7003;42935;50.966;16.992;2023-01-20T04:45:25;97;73;44
57049;PMS7003;42935;50.966;16.992;2023-01-20T04:48:39;96;76;43
57049;PMS7003;42935;50.966;16.992;2023-01-20T04:51:48;98;75;45
57049;PMS7003;42935;50.966;16.992;2023-01-20T04:55:03;102;76;45
57049;PMS7003;42935;50.966;16.992;2023-01-20T04:58:16;104;74;44
57049;PMS7003;42935;50.966;16.992;2023-01-20T05:01:32;101;75;42
57049;PMS7003;42935;50.966;16.992;2023-01-20T05:04:44;99;74;43
57049;PMS7003;42935;50.966;16.992;2023-01-20T05:07:56;105;76;42
57049;PMS7003;42935;50.966;16.992;2023-01-20T05:11:10;93;65;41
57049;PMS7003;42935;50.966;16.992;2023-01-20T05:14:33;101;74;44
57049;PMS7003;42935;50.966;16.992;2023-01-20T05:17:49;98;70;42
57049;PMS7003;42935;50.966;16.992;2023-01-20T05:20:58;90;66;41
57049;PMS7003;42935;50.966;16.992;2023-01-20T05:24:11;105;77;45
57049;PMS7003;42935;50.966;16.992;2023-01-20T05:27:27;114;84;48
57049;PMS7003;42935;50.966;16.992;2023-01-20T05:30:29;0;0;0
57049;PMS7003;42935;50.966;16.992;2023-01-20T05:33:32;0;0;0
57049;PMS7003;42935;50.966;16.992;2023-01-20T05:36:36;0;0;0
57049;PMS7003;42935;50.966;16.992;2023-01-20T05:39:41;0;0;0
57049;PMS7003;42935;50.966;16.992;2023-01-20T05:42:46;8;7;6
57049;PMS7003;42935;50.966;16.992;2023-01-20T05:45:48;0;0;0
57049;PMS7003;42935;50.966;16.992;2023-01-20T05:48:51;0;0;0
57049;PMS7003;42935;50.966;16.992;2023-01-20T05:51:54;0;0;0
57049;PMS7003;42935;50.966;16.992;2023-01-20T05:54:57;5;5;5
57049;PMS7003;42935;50.966;16.992;2023-01-20T05:58:02;1;1;1
57049;PMS7003;42935;50.966;16.992;2023-01-20T06:01:09;15;15;15
57049;PMS7003;42935;50.966;16.992;2023-01-20T06:04:14;0;0;0
57049;PMS7003;42935;50.966;16.992;2023-01-20T06:07:16;1;1;1
57049;PMS7003;42935;50.966;16.992;2023-01-20T06:10:19;0;0;0
57049;PMS7003;42935;50.966;16.992;2023-01-20T06:13:27;0;0;0
57049;PMS7003;42935;50.966;16.992;2023-01-20T06:16:30;0;0;0
57049;PMS7003;42935;50.966;16.992;2023-01-20T06:19:33;0;0;0
57049;PMS7003;42935;50.966;16.992;2023-01-20T06:22:37;0;0;0
57049;PMS7003;42935;50.966;16.992;2023-01-20T06:25:39;0;0;0
57049;PMS7003;42935;50.966;16.992;2023-01-20T06:28:44;0;0;0
57049;PMS7003;42935;50.966;16.992;2023-01-20T06:31:48;0;0;0
57049;PMS7003;42935;50.966;16.992;2023-01-20T06:34:51;0;0;0
57049;PMS7003;42935;50.966;16.992;2023-01-20T06:37:56;0;0;0
57049;PMS7003;42935;50.966;16.992;2023-01-20T06:41:00;0;0;0
57049;PMS7003;42935;50.966;16.992;2023-01-20T06:44:05;0;0;0
57049;PMS7003;42935;50.966;16.992;2023-01-20T06:47:09;0;0;0
57049;PMS7003;42935;50.966;16.992;2023-01-20T06:50:12;0;0;0
57049;PMS7003;42935;50.966;16.992;2023-01-20T06:53:17;0;0;0
57049;PMS7003;42935;50.966;16.992;2023-01-20T06:56:19;0;0;0
57049;PMS7003;42935;50.966;16.992;2023-01-20T06:59:55;0;0;0
57049;PMS7003;42935;50.966;16.992;2023-01-20T07:02:59;1;1;1
57049;PMS7003;42935;50.966;16.992;2023-01-20T07:09:20;0;0;0
57049;PMS7003;42935;50.966;16.992;2023-01-20T07:12:24;0;0;0
57049;PMS7003;42935;50.966;16.992;2023-01-20T07:15:28;0;0;0
57049;PMS7003;42935;50.966;16.992;2023-01-20T07:18:30;0;0;0
57049;PMS7003;42935;50.966;16.992;2023-01-20T07:21:34;0;0;0
57049;PMS7003;42935;50.966;16.992;2023-01-20T07:24:37;2;2;2
57049;PMS7003;42935;50.966;16.992;2023-01-20T07:27:40;0;0;0
57049;PMS7003;42935;50.966;16.992;2023-01-20T07:30:44;0;0;0
57049;PMS7003;42935;50.966;16.992;2023-01-20T07:33:48;0;0;0
57049;PMS7003;42935;50.966;16.992;2023-01-20T07:37:21;0;0;0
57049;PMS7003;42935;50.966;16.992;2023-01-20T07:40:27;0;0;0
57049;PMS7003;42935;50.966;16.992;2023-01-20T07:43:41;0;0;0
57049;PMS7003;42935;50.966;16.992;2023-01-20T07:46:44;0;0;0
57049;PMS7003;42935;50.966;16.992;2023-01-20T07:49:48;0;0;0
57049;PMS7003;42935;50.966;16.992;2023-01-20T07:52:53;0;0;0
57049;PMS7003;42935;50.966;16.992;2023-01-20T07:55:59;0;0;0
57049;PMS7003;42935;50.966;16.992;2023-01-20T07:59:04;11;10;8
57049;PMS7003;42935;50.966;16.992;2023-01-20T08:02:09;0;0;0
57049;PMS7003;42935;50.966;16.992;2023-01-20T08:05:12;0;0;0
57049;PMS7003;42935;50.966;16.992;2023-01-20T08:08:15;0;0;0
57049;PMS7003;42935;50.966;16.992;2023-01-20T08:11:19;0;0;0
57049;PMS7003;42935;50.966;16.992;2023-01-20T08:14:22;0;0;0
57049;PMS7003;42935;50.966;16.992;2023-01-20T08:17:25;0;0;0
57049;PMS7003;42935;50.966;16.992;2023-01-20T08:20:29;0;0;0
57049;PMS7003;42935;50.966;16.992;2023-01-20T08:23:35;3;3;1
57049;PMS7003;42935;50.966;16.992;2023-01-20T08:26:40;0;0;0
57049;PMS7003;42935;50.966;16.992;2023-01-20T08:29:44;0;0;0
57049;PMS7003;42935;50.966;16.992;2023-01-20T08:32:48;0;0;0
57049;PMS7003;42935;50.966;16.992;2023-01-20T08:35:50;0;0;0
57049;PMS7003;42935;50.966;16.992;2023-01-20T08:38:56;0;0;0
57049;PMS7003;42935;50.966;16.992;2023-01-20T08:42:02;0;0;0
57049;PMS7003;42935;50.966;16.992;2023-01-20T08:45:06;0;0;0
57049;PMS7003;42935;50.966;16.992;2023-01-20T08:48:10;0;0;0
57049;PMS7003;42935;50.966;16.992;2023-01-20T08:51:16;0;0;0
57049;PMS7003;42935;50.966;16.992;2023-01-20T08:54:26;1;1;1
57049;PMS7003;42935;50.966;16.992;2023-01-20T08:57:34;0;0;0
57049;PMS7003;42935;50.966;16.992;2023-01-20T09:00:39;0;0;0
57049;PMS7003;42935;50.966;16.992;2023-01-20T09:03:42;0;0;0
57049;PMS7003;42935;50.966;16.992;2023-01-20T09:06:47;0;0;0
57049;PMS7003;42935;50.966;16.992;2023-01-20T09:09:51;12;11;9
57049;PMS7003;42935;50.966;16.992;2023-01-20T09:12:55;0;0;0
57049;PMS7003;42935;50.966;16.992;2023-01-20T09:15:59;0;0;0
57049;PMS7003;42935;50.966;16.992;2023-01-20T09:19:03;0;0;0
57049;PMS7003;42935;50.966;16.992;2023-01-20T09:22:06;0;0;0
57049;PMS7003;42935;50.966;16.992;2023-01-20T09:25:10;0;0;0
57049;PMS7003;42935;50.966;16.992;2023-01-20T09:28:18;11;9;5
57049;PMS7003;42935;50.966;16.992;2023-01-20T09:31:22;0;0;0
57049;PMS7003;42935;50.966;16.992;2023-01-20T09:34:29;0;0;0
57049;PMS7003;42935;50.966;16.992;2023-01-20T09:37:32;0;0;0
57049;PMS7003;42935;50.966;16.992;2023-01-20T09:41:13;0;0;0
57049;PMS7003;42935;50.966;16.992;2023-01-20T09:47:30;3;3;3
57049;PMS7003;42935;50.966;16.992;2023-01-20T09:50:41;0;0;0
57049;PMS7003;42935;50.966;16.992;2023-01-20T09:57:18;0;0;0
57049;PMS7003;42935;50.966;16.992;2023-01-20T10:00:32;34;30;26
57049;PMS7003;42935;50.966;16.992;2023-01-20T10:03:51;35;30;18
57049;PMS7003;42935;50.966;16.992;2023-01-20T10:07:02;3;3;3
57049;PMS7003;42935;50.966;16.992;2023-01-20T10:10:15;0;0;0
57049;PMS7003;42935;50.966;16.992;2023-01-20T10:13:25;0;0;0
57049;PMS7003;42935;50.966;16.992;2023-01-20T10:16:39;0;0;0
57049;PMS7003;42935;50.966;16.992;2023-01-20T10:23:05;0;0;0
57049;PMS7003;42935;50.966;16.992;2023-01-20T10:26:15;0;0;0
57049;PMS7003;42935;50.966;16.992;2023-01-20T10:32:41;3;3;3
57049;PMS7003;42935;50.966;16.992;2023-01-20T10:35:53;0;0;0
57049;PMS7003;42935;50.966;16.992;2023-01-20T10:39:02;1;0;0
57049;PMS7003;42935;50.966;16.992;2023-01-20T10:42:14;0;0;0
57049;PMS7003;42935;50.966;16.992;2023-01-20T10:45:20;0;0;0
57049;PMS7003;42935;50.966;16.992;2023-01-20T10:51:50;0;0;0
57049;PMS7003;42935;50.966;16.992;2023-01-20T10:55:08;10;9;7
57049;PMS7003;42935;50.966;16.992;2023-01-20T11:01:31;0;0;0
57049;PMS7003;42935;50.966;16.992;2023-01-20T11:04:38;3;3;3
57049;PMS7003;42935;50.966;16.992;2023-01-20T11:07:43;0;0;0
57049;PMS7003;42935;50.966;16.992;2023-01-20T11:10:50;1;1;1
57049;PMS7003;42935;50.966;16.992;2023-01-20T11:14:00;4;4;4
57049;PMS7003;42935;50.966;16.992;2023-01-20T11:17:05;0;0;0
57049;PMS7003;42935;50.966;16.992;2023-01-20T11:20:13;0;0;0
57049;PMS7003;42935;50.966;16.992;2023-01-20T11:26:41;0;0;0
57049;PMS7003;42935;50.966;16.992;2023-01-20T11:36:16;0;0;0
57049;PMS7003;42935;50.966;16.992;2023-01-20T11:39:28;0;0;0
57049;PMS7003;42935;50.966;16.992;2023-01-20T11:42:41;9;8;7
57049;PMS7003;42935;50.966;16.992;2023-01-20T11:45:46;0;0;0
57049;PMS7003;42935;50.966;16.992;2023-01-20T11:52:18;0;0;0
57049;PMS7003;42935;50.966;16.992;2023-01-20T11:55:22;0;0;0
57049;PMS7003;42935;50.966;16.992;2023-01-20T11:58:28;0;0;0
57049;PMS7003;42935;50.966;16.992;2023-01-20T12:08:03;0;0;0
57049;PMS7003;42935;50.966;16.992;2023-01-20T12:11:18;1;1;0
57049;PMS7003;42935;50.966;16.992;2023-01-20T12:14:36;19;9;2
57049;PMS7003;42935;50.966;16.992;2023-01-20T12:20:58;0;0;0
57049;PMS7003;42935;50.966;16.992;2023-01-20T12:24:20;0;0;0
57049;PMS7003;42935;50.966;16.992;2023-01-20T12:27:30;0;0;0
57049;PMS7003;42935;50.966;16.992;2023-01-20T12:30:38;0;0;0
57049;PMS7003;42935;50.966;16.992;2023-01-20T12:43:41;51;40;19
57049;PMS7003;42935;50.966;16.992;2023-01-20T12:50:18;1;1;1
57049;PMS7003;42935;50.966;16.992;2023-01-20T13:23:24;3;3;3
57049;PMS7003;42935;50.966;16.992;2023-01-20T13:26:34;0;0;0
57049;PMS7003;42935;50.966;16.992;2023-01-20T13:29:42;0;0;0
57049;PMS7003;42935;50.966;16.992;2023-01-20T13:32:52;0;0;0
57049;PMS7003;42935;50.966;16.992;2023-01-20T13:42:46;0;0;0
57049;PMS7003;42935;50.966;16.992;2023-01-20T13:55:50;0;0;0
57049;PMS7003;42935;50.966;16.992;2023-01-20T13:58:55;1;1;1
57049;PMS7003;42935;50.966;16.992;2023-01-20T14:05:20;0;0;0
57049;PMS7003;42935;50.966;16.992;2023-01-20T14:11:48;8;4;4
57049;PMS7003;42935;50.966;16.992;2023-01-20T14:14:59;0;0;0
57049;PMS7003;42935;50.966;16.992;2023-01-20T14:18:03;0;0;0
57049;PMS7003;42935;50.966;16.992;2023-01-20T14:21:42;0;0;0
57049;PMS7003;42935;50.966;16.992;2023-01-20T14:24:46;0;0;0
57049;PMS7003;42935;50.966;16.992;2023-01-20T14:27:55;0;0;0
57049;PMS7003;42935;50.966;16.992;2023-01-20T14:34:42;0;0;0
57049;PMS7003;42935;50.966;16.992;2023-01-20T14:37:48;2;2;1
57049;PMS7003;42935;50.966;16.992;2023-01-20T14:40:53;0;0;0
57049;PMS7003;42935;50.966;16.992;2023-01-20T14:44:00;12;12;10
57049;PMS7003;42935;50.966;16.992;2023-01-20T14:47:08;18;14;5
57049;PMS7003;42935;50.966;16.992;2023-01-20T14:50:11;17;16;16
57049;PMS7003;42935;50.966;16.992;2023-01-20T14:53:19;1;1;1
57049;PMS7003;42935;50.966;16.992;2023-01-20T14:56:24;1;1;1
57049;PMS7003;42935;50.966;16.992;2023-01-20T14:59:31;0;0;0
57049;PMS7003;42935;50.966;16.992;2023-01-20T15:02:37;0;0;0
57049;PMS7003;42935;50.966;16.992;2023-01-20T15:06:19;0;0;0
57049;PMS7003;42935;50.966;16.992;2023-01-20T15:09:33;0;0;0
57049;PMS7003;42935;50.966;16.992;2023-01-20T15:15:48;0;0;0
57049;PMS7003;42935;50.966;16.992;2023-01-20T15:25:23;4;4;4
57049;PMS7003;42935;50.966;16.992;2023-01-20T15:28:29;3;3;3
57049;PMS7003;42935;50.966;16.992;2023-01-20T15:31:35;0;0;0
57049;PMS7003;42935;50.966;16.992;2023-01-20T15:34:39;0;0;0
57049;PMS7003;42935;50.966;16.992;2023-01-20T15:37:44;0;0;0
57049;PMS7003;42935;50.966;16.992;2023-01-20T15:40:48;2;2;2
57049;PMS7003;42935;50.966;16.992;2023-01-20T15:43:51;3;3;2
57049;PMS7003;42935;50.966;16.992;2023-01-20T15:46:55;15;10;4
57049;PMS7003;42935;50.966;16.992;2023-01-20T15:49:59;37;32;19
57049;PMS7003;42935;50.966;16.992;2023-01-20T15:53:09;2;2;2
57049;PMS7003;42935;50.966;16.992;2023-01-20T15:56:17;1;0;0
57049;PMS7003;42935;50.966;16.992;2023-01-20T15:59:25;4;2;2
57049;PMS7003;42935;50.966;16.992;2023-01-20T16:02:34;6;6;6
57049;PMS7003;42935;50.966;16.992;2023-01-20T16:05:38;1;1;1
57049;PMS7003;42935;50.966;16.992;2023-01-20T16:08:45;6;6;5
57049;PMS7003;42935;50.966;16.992;2023-01-20T16:11:52;7;7;6
57049;PMS7003;42935;50.966;16.992;2023-01-20T16:14:57;2;2;2
57049;PMS7003;42935;50.966;16.992;2023-01-20T16:18:03;9;9;9
57049;PMS7003;42935;50.966;16.992;2023-01-20T16:21:09;5;5;5
57049;PMS7003;42935;50.966;16.992;2023-01-20T16:24:19;21;16;9
57049;PMS7003;42935;50.966;16.992;2023-01-20T16:27:24;2;0;0
57049;PMS7003;42935;50.966;16.992;2023-01-20T16:30:29;0;0;0
57049;PMS7003;42935;50.966;16.992;2023-01-20T16:33:34;10;9;6
57049;PMS7003;42935;50.966;16.992;2023-01-20T16:36:39;4;4;3
57049;PMS7003;42935;50.966;16.992;2023-01-20T16:39:48;0;0;0
57049;PMS7003;42935;50.966;16.992;2023-01-20T16:42:53;0;0;0
57049;PMS7003;42935;50.966;16.992;2023-01-20T16:46:03;0;0;0
57049;PMS7003;42935;50.966;16.992;2023-01-20T16:49:06;6;4;2
57049;PMS7003;42935;50.966;16.992;2023-01-20T16:52:18;11;8;4
57049;PMS7003;42935;50.966;16.992;2023-01-20T16:55:21;2;1;1
57049;PMS7003;42935;50.966;16.992;2023-01-20T16:58:26;6;5;4
57049;PMS7003;42935;50.966;16.992;2023-01-20T17:01:30;7;7;7
57049;PMS7003;42935;50.966;16.992;2023-01-20T17:04:35;4;3;3
57049;PMS7003;42935;50.966;16.992;2023-01-20T17:07:41;1;1;1
57049;PMS7003;42935;50.966;16.992;2023-01-20T17:10:47;22;17;12
57049;PMS7003;42935;50.966;16.992;2023-01-20T17:13:53;6;4;4
57049;PMS7003;42935;50.966;16.992;2023-01-20T17:16:58;8;8;8
57049;PMS7003;42935;50.966;16.992;2023-01-20T17:20:14;16;11;8
57049;PMS7003;42935;50.966;16.992;2023-01-20T17:23:23;3;3;2
57049;PMS7003;42935;50.966;16.992;2023-01-20T17:26:33;13;8;3
57049;PMS7003;42935;50.966;16.992;2023-01-20T17:29:39;4;3;2
57049;PMS7003;42935;50.966;16.992;2023-01-20T17:32:53;11;8;4
57049;PMS7003;42935;50.966;16.992;2023-01-20T17:36:00;4;4;1
57049;PMS7003;42935;50.966;16.992;2023-01-20T17:39:06;0;0;0
57049;PMS7003;42935;50.966;16.992;2023-01-20T17:42:19;0;0;0
57049;PMS7003;42935;50.966;16.992;2023-01-20T17:45:25;4;4;2
57049;PMS7003;42935;50.966;16.992;2023-01-20T17:48:36;6;6;5
57049;PMS7003;42935;50.966;16.992;2023-01-20T17:51:42;0;0;0
57049;PMS7003;42935;50.966;16.992;2023-01-20T17:54:45;4;3;2
57049;PMS7003;42935;50.966;16.992;2023-01-20T17:57:51;0;0;0
57049;PMS7003;42935;50.966;16.992;2023-01-20T18:00:56;18;7;1
57049;PMS7003;42935;50.966;16.992;2023-01-20T18:04:11;5;5;5
57049;PMS7003;42935;50.966;16.992;2023-01-20T18:07:16;3;3;3
57049;PMS7003;42935;50.966;16.992;2023-01-20T18:10:23;4;2;0
57049;PMS7003;42935;50.966;16.992;2023-01-20T18:13:32;8;8;7
57049;PMS7003;42935;50.966;16.992;2023-01-20T18:16:37;0;0;0
57049;PMS7003;42935;50.966;16.992;2023-01-20T18:19:44;2;2;2
57049;PMS7003;42935;50.966;16.992;2023-01-20T18:22:48;0;0;0
57049;PMS7003;42935;50.966;16.992;2023-01-20T18:25:54;4;3;1
57049;PMS7003;42935;50.966;16.992;2023-01-20T18:29:02;0;0;0
57049;PMS7003;42935;50.966;16.992;2023-01-20T18:32:12;7;5;4
57049;PMS7003;42935;50.966;16.992;2023-01-20T18:35:18;4;3;3
57049;PMS7003;42935;50.966;16.992;2023-01-20T18:38:21;5;3;2
57049;PMS7003;42935;50.966;16.992;2023-01-20T18:41:26;20;18;16
57049;PMS7003;42935;50.966;16.992;2023-01-20T18:44:33;1;0;0
57049;PMS7003;42935;50.966;16.992;2023-01-20T18:47:43;4;4;4
57049;PMS7003;42935;50.966;16.992;2023-01-20T18:50:48;23;20;17
57049;PMS7003;42935;50.966;16.992;2023-01-20T18:57:08;19;9;1
57049;PMS7003;42935;50.966;16.992;2023-01-20T19:00:19;4;2;1
57049;PMS7003;42935;50.966;16.992;2023-01-20T19:03:30;0;0;0
57049;PMS7003;42935;50.966;16.992;2023-01-20T19:06:39;9;3;1
57049;PMS7003;42935;50.966;16.992;2023-01-20T19:09:48;1;1;0
57049;PMS7003;42935;50.966;16.992;2023-01-20T19:12:54;1;1;1
57049;PMS7003;42935;50.966;16.992;2023-01-20T19:15:58;3;1;1
57049;PMS7003;42935;50.966;16.992;2023-01-20T19:19:06;2;1;1
57049;PMS7003;42935;50.966;16.992;2023-01-20T19:22:15;0;0;0
57049;PMS7003;42935;50.966;16.992;2023-01-20T19:25:26;0;0;0
57049;PMS7003;42935;50.966;16.992;2023-01-20T19:28:33;2;2;2
57049;PMS7003;42935;50.966;16.992;2023-01-20T19:31:39;0;0;0
57049;PMS7003;42935;50.966;16.992;2023-01-20T19:34:42;1;1;0
57049;PMS7003;42935;50.966;16.992;2023-01-20T19:37:51;3;3;3
57049;PMS7003;42935;50.966;16.992;2023-01-20T19:44:18;1;1;1
57049;PMS7003;42935;50.966;16.992;2023-01-20T19:47:28;5;3;1
57049;PMS7003;42935;50.966;16.992;2023-01-20T19:50:37;1;1;1
57049;PMS7003;42935;50.966;16.992;2023-01-20T19:53:44;0;0;0
57049;PMS7003;42935;50.966;16.992;2023-01-20T19:56:50;0;0;0
57049;PMS7003;42935;50.966;16.992;2023-01-20T20:00:02;22;19;12
57049;PMS7003;42935;50.966;16.992;2023-01-20T20:03:08;0;0;0
57049;PMS7003;42935;50.966;16.992;2023-01-20T20:06:27;12;10;6
57049;PMS7003;42935;50.966;16.992;2023-01-20T20:09:38;1;1;1
57049;PMS7003;42935;50.966;16.992;2023-01-20T20:12:54;10;8;6
57049;PMS7003;42935;50.966;16.992;2023-01-20T20:16:04;8;6;4
57049;PMS7003;42935;50.966;16.992;2023-01-20T20:19:10;5;5;3
57049;PMS7003;42935;50.966;16.992;2023-01-20T20:22:18;9;9;4
57049;PMS7003;42935;50.966;16.992;2023-01-20T20:25:22;3;3;2
57049;PMS7003;42935;50.966;16.992;2023-01-20T20:28:36;11;8;7
57049;PMS7003;42935;50.966;16.992;2023-01-20T20:31:41;3;2;1
57049;PMS7003;42935;50.966;16.992;2023-01-20T20:34:56;18;15;11
57049;PMS7003;42935;50.966;16.992;2023-01-20T20:38:01;0;0;0
57049;PMS7003;42935;50.966;16.992;2023-01-20T20:41:07;4;4;3
57049;PMS7003;42935;50.966;16.992;2023-01-20T20:44:12;1;1;1
57049;PMS7003;42935;50.966;16.992;2023-01-20T20:47:22;20;16;10
57049;PMS7003;42935;50.966;16.992;2023-01-20T20:50:36;11;10;8
57049;PMS7003;42935;50.966;16.992;2023-01-20T20:53:39;1;1;1
57049;PMS7003;42935;50.966;16.992;2023-01-20T20:56:43;1;1;1
57049;PMS7003;42935;50.966;16.992;2023-01-20T20:59:53;17;2;1
57049;PMS7003;42935;50.966;16.992;2023-01-20T21:03:00;9;9;7
57049;PMS7003;42935;50.966;16.992;2023-01-20T21:06:09;19;16;15
57049;PMS7003;42935;50.966;16.992;2023-01-20T21:09:25;9;7;6
57049;PMS7003;42935;50.966;16.992;2023-01-20T21:12:34;10;9;8
57049;PMS7003;42935;50.966;16.992;2023-01-20T21:19:08;0;0;0
57049;PMS7003;42935;50.966;16.992;2023-01-20T21:22:12;4;2;0
57049;PMS7003;42935;50.966;16.992;2023-01-20T21:25:25;17;13;10
57049;PMS7003;42935;50.966;16.992;2023-01-20T21:28:35;22;21;19
57049;PMS7003;42935;50.966;16.992;2023-01-20T21:31:47;16;14;8
57049;PMS7003;42935;50.966;16.992;2023-01-20T21:35:08;38;24;14
57049;PMS7003;42935;50.966;16.992;2023-01-20T21:38:25;23;21;13
57049;PMS7003;42935;50.966;16.992;2023-01-20T21:41:34;20;20;18
57049;PMS7003;42935;50.966;16.992;2023-01-20T21:44:52;12;10;8
57049;PMS7003;42935;50.966;16.992;2023-01-20T21:48:04;2;2;1
57049;PMS7003;42935;50.966;16.992;2023-01-20T21:51:19;20;15;9
57049;PMS7003;42935;50.966;16.992;2023-01-20T21:54:37;34;30;21
57049;PMS7003;42935;50.966;16.992;2023-01-20T21:57:48;13;12;10
57049;PMS7003;42935;50.966;16.992;2023-01-20T22:00:54;5;2;1
57049;PMS7003;42935;50.966;16.992;2023-01-20T22:04:08;12;8;7
57049;PMS7003;42935;50.966;16.992;2023-01-20T22:07:16;5;5;3
57049;PMS7003;42935;50.966;16.992;2023-01-20T22:10:26;16;12;8
57049;PMS7003;42935;50.966;16.992;2023-01-20T22:13:34;19;13;11
57049;PMS7003;42935;50.966;16.992;2023-01-20T22:16:44;18;14;9
57049;PMS7003;42935;50.966;16.992;2023-01-20T22:19:58;19;17;11
57049;PMS7003;42935;50.966;16.992;2023-01-20T22:23:08;2;2;1
57049;PMS7003;42935;50.966;16.992;2023-01-20T22:26:19;12;9;6
57049;PMS7003;42935;50.966;16.992;2023-01-20T22:29:27;2;1;0
57049;PMS7003;42935;50.966;16.992;2023-01-20T22:32:32;9;6;4
57049;PMS7003;42935;50.966;16.992;2023-01-20T22:35:40;0;0;0
57049;PMS7003;42935;50.966;16.992;2023-01-20T22:38:44;0;0;0
57049;PMS7003;42935;50.966;16.992;2023-01-20T22:41:49;1;1;0
57049;PMS7003;42935;50.966;16.992;2023-01-20T22:44:54;2;1;1
57049;PMS7003;42935;50.966;16.992;2023-01-20T22:47:59;3;3;3
57049;PMS7003;42935;50.966;16.992;2023-01-20T22:51:14;6;4;1
57049;PMS7003;42935;50.966;16.992;2023-01-20T22:54:21;1;1;0
57049;PMS7003;42935;50.966;16.992;2023-01-20T22:57:28;9;7;3
57049;PMS7003;42935;50.966;16.992;2023-01-20T23:00:44;4;4;3
57049;PMS7003;42935;50.966;16.992;2023-01-20T23:03:47;2;2;1
57049;PMS7003;42935;50.966;16.992;2023-01-20T23:06:54;0;0;0
57049;PMS7003;42935;50.966;16.992;2023-01-20T23:09:57;0;0;0
57049;PMS7003;42935;50.966;16.992;2023-01-20T23:13:15;19;17;8
57049;PMS7003;42935;50.966;16.992;2023-01-20T23:16:21;0;0;0
57049;PMS7003;42935;50.966;16.992;2023-01-20T23:19:31;1;0;0
57049;PMS7003;42935;50.966;16.992;2023-01-20T23:22:38;1;1;0
57049;PMS7003;42935;50.966;16.992;2023-01-20T23:25:42;14;13;9
57049;PMS7003;42935;50.966;16.992;2023-01-20T23:29:00;7;5;3